Terminal Aerodrome Forecast
Issued by NWS

Home | Current Version | Previous Version | Text Only | Print | Product List | Glossary On
Versions: 1 2 3 4 5 6 7 8 9 10 11 12 13 14 15 16 17 18
000
FTUS46 KLOX 252359
TAFVNY
TAF
KVNY 252359Z 2600/2624 15009KT P6SM SCT035
     FM260400 15005KT P6SM SCT020 BKN035
     FM260800 14005KT P6SM -DZ BKN020 OVC035
     FM261400 VRB03KT P6SM SCT020 BKN035
     FM262000 18009KT P6SM SCT035=

USA.gov is the U.S. government's official web portal to all federal, state and local government web resources and services.